Time;durP1;ratioP1;P1;durP2;ratioP2;P2;SDS_P1;SDS_P2;PMS_P1;PMS_P2;Temp;Humidity;BMP_temperature;BMP_pressure;BME280_temperature;BME280_humidity;BME280_pressure;Samples;Min_cycle;Max_cycle;Signal;HPM_P1;HPM_P2
2022/01/03 00:02:24;;;;;;;;;4.33;1.33;;;;;13.61;63.61;101427.88;4997451;28;45035;-70
2022/01/03 00:04:50;;;;;;;;;1.00;1.00;;;;;13.61;63.16;101430.56;4994738;28;45049;-71
2022/01/03 00:07:16;;;;;;;;;2.67;2.67;;;;;13.62;63.19;101425.22;4995278;28;45010;-71
2022/01/03 00:09:41;;;;;;;;;3.00;2.67;;;;;13.51;63.29;101424.06;5005047;28;46030;-70
2022/01/03 00:12:07;;;;;;;;;4.33;3.00;;;;;13.50;62.86;101413.31;5006420;28;45173;-70
2022/01/03 00:14:34;;;;;;;;;3.00;2.67;;;;;13.52;62.99;101415.13;4994721;28;45171;-70
2022/01/03 00:17:00;;;;;;;;;3.00;2.00;;;;;13.62;63.21;101430.59;4992868;28;45180;-69
2022/01/03 00:19:25;;;;;;;;;8.00;3.00;;;;;13.63;63.31;101431.53;4992480;28;45270;-69
2022/01/03 00:21:56;;;;;;;;;8.00;3.00;;;;;13.62;63.56;101443.13;5006190;28;45018;-68
2022/01/03 00:24:31;;;;;;;;;2.00;2.00;;;;;13.55;62.88;101427.75;4999358;28;45192;-70
2022/01/03 00:27:02;;;;;;;;;7.00;3.00;;;;;13.58;63.49;101435.88;4998534;28;45197;-69
2022/01/03 00:29:34;;;;;;;;;2.00;2.00;;;;;13.55;63.18;101442.06;4991683;28;46226;-69
2022/01/03 00:32:01;;;;;;;;;6.00;1.33;;;;;13.53;63.58;101449.19;4995783;28;45389;-68
2022/01/03 00:34:28;;;;;;;;;5.67;1.00;;;;;13.52;63.57;101441.97;5005295;28;45117;-69
2022/01/03 00:36:55;;;;;;;;;7.00;3.00;;;;;13.42;63.23;101431.88;4994718;28;44979;-68
2022/01/03 00:39:21;;;;;;;;;5.00;2.00;;;;;13.21;63.65;101405.38;4994644;28;45633;-71
2022/01/03 00:41:48;;;;;;;;;7.00;3.33;;;;;13.51;63.10;101458.06;4994857;28;45213;-69
2022/01/03 00:44:14;;;;;;;;;8.00;3.00;;;;;13.47;63.77;101459.75;5003293;28;45233;-71
2022/01/03 00:46:41;;;;;;;;;4.33;2.67;;;;;13.46;63.97;101457.94;5004510;28;45134;-69
2022/01/03 00:49:06;;;;;;;;;6.33;2.00;;;;;13.47;63.33;101461.53;5013956;28;45214;-67
2022/01/03 00:51:32;;;;;;;;;2.00;2.00;;;;;13.42;64.01;101453.38;4995878;28;45194;-69
2022/01/03 00:53:58;;;;;;;;;5.33;3.00;;;;;13.44;64.00;101439.09;4993575;28;45195;-69
2022/01/03 00:56:46;;;;;;;;;3.67;2.00;;;;;13.41;63.69;101446.16;5004245;28;45150;-69
2022/01/03 00:59:12;;;;;;;;;5.00;2.00;;;;;13.48;63.47;101455.28;5017516;28;46350;-70
2022/01/03 01:01:47;;;;;;;;;2.00;1.67;;;;;13.32;63.77;101432.50;5012286;28;45121;-72
2022/01/03 01:04:13;;;;;;;;;1.00;1.00;;;;;13.47;63.84;101446.34;5007581;28;45128;-70
2022/01/03 01:06:39;;;;;;;;;6.67;1.67;;;;;13.09;63.34;101384.50;5013205;28;45187;-70
2022/01/03 01:09:09;;;;;;;;;1.00;1.00;;;;;13.45;63.29;101454.34;5012499;28;45330;-71
2022/01/03 01:11:35;;;;;;;;;5.00;3.00;;;;;13.43;63.69;101453.41;5010096;28;45244;-69
2022/01/03 01:14:02;;;;;;;;;10.67;3.67;;;;;13.42;63.93;101458.72;5004213;28;45197;-69
2022/01/03 01:16:28;;;;;;;;;4.00;2.67;;;;;13.27;64.21;101424.31;4993376;28;44888;-69
2022/01/03 01:18:54;;;;;;;;;2.33;2.00;;;;;13.18;63.87;101422.31;4993592;28;45876;-67
2022/01/03 01:21:23;;;;;;;;;5.33;1.00;;;;;13.30;64.43;101442.25;5003098;28;45105;-69
2022/01/03 01:23:50;;;;;;;;;1.00;1.00;;;;;13.30;64.56;101442.25;5010250;28;44987;-69
2022/01/03 01:29:05;;;;;;;;;6.00;2.00;;;;;13.29;64.87;101441.34;5012141;28;45154;-70
2022/01/03 01:31:34;;;;;;;;;4.00;0.67;;;;;13.28;63.94;101442.22;5013124;28;45067;-68
2022/01/03 01:34:03;;;;;;;;;4.67;2.67;;;;;13.21;64.49;101426.81;5011885;28;45084;-67
2022/01/03 01:36:29;;;;;;;;;4.67;2.33;;;;;13.25;64.63;101439.47;4997657;28;45138;-69
2022/01/03 01:39:09;;;;;;;;;3.67;0.00;;;;;13.28;64.00;101434.16;4997589;28;45209;-69
2022/01/03 01:41:39;;;;;;;;;8.00;1.67;;;;;13.22;64.03;101424.19;4992886;28;45136;-68
2022/01/03 01:44:08;;;;;;;;;3.00;1.67;;;;;13.27;64.71;101424.31;5012548;28;45156;-68
2022/01/03 01:46:35;;;;;;;;;3.00;2.00;;;;;13.23;64.56;101426.00;5012567;28;45030;-69
2022/01/03 01:49:05;;;;;;;;;8.00;1.00;;;;;12.89;64.45;101373.22;5001054;28;45770;-69
2022/01/03 01:51:36;;;;;;;;;5.33;2.67;;;;;13.25;64.99;101424.28;4993048;28;45077;-67
2022/01/03 01:54:05;;;;;;;;;5.00;3.33;;;;;13.24;64.54;101427.81;4993727;28;44980;-69
2022/01/03 01:56:59;;;;;;;;;3.67;1.67;;;;;13.20;64.22;101428.63;4994865;28;45301;-69
2022/01/03 01:59:45;;;;;;;;;7.33;3.67;;;;;13.17;64.70;101419.59;4997453;28;45236;-68
2022/01/03 02:02:15;;;;;;;;;3.00;1.00;;;;;13.13;64.60;101423.94;4994178;28;45058;-68
2022/01/03 02:04:46;;;;;;;;;3.00;1.33;;;;;13.09;64.54;101414.91;4993497;28;45063;-70
2022/01/03 02:07:42;;;;;;;;;8.67;2.00;;;;;13.08;65.10;101414.84;4994100;28;45267;-70
2022/01/03 02:10:11;;;;;;;;;4.33;3.00;;;;;13.04;65.26;101413.88;5011945;28;45988;-68
2022/01/03 02:12:48;;;;;;;;;3.00;1.00;;;;;13.01;65.78;101404.84;5010026;28;45064;-68
2022/01/03 02:15:16;;;;;;;;;2.00;1.00;;;;;13.09;65.48;101430.09;4992290;28;44987;-69
2022/01/03 02:17:48;;;;;;;;;3.00;3.00;;;;;12.90;65.32;101401.84;4993069;28;45129;-68
2022/01/03 02:20:22;;;;;;;;;7.00;2.00;;;;;12.98;64.98;101408.31;4994306;28;45659;-69
2022/01/03 02:22:48;;;;;;;;;2.67;1.33;;;;;13.11;65.40;101424.78;5000116;28;45207;-67
2022/01/03 02:25:16;;;;;;;;;2.00;2.00;;;;;13.08;64.49;101407.75;5003400;28;45015;-71
2022/01/03 02:27:42;;;;;;;;;6.00;2.00;;;;;13.08;64.93;101418.47;4999159;28;44986;-69
2022/01/03 02:30:12;;;;;;;;;5.00;2.00;;;;;12.93;64.97;101404.63;4990314;28;45711;-68
2022/01/03 02:32:39;;;;;;;;;3.00;2.33;;;;;12.66;65.19;101352.06;4990960;28;45181;-69
2022/01/03 02:35:05;;;;;;;;;5.67;2.00;;;;;13.08;65.26;101439.00;5008855;28;45065;-69
2022/01/03 02:37:31;;;;;;;;;4.33;2.00;;;;;13.07;64.54;101446.16;4993584;28;45223;-69
2022/01/03 02:39:57;;;;;;;;;1.67;1.67;;;;;12.88;65.21;101415.22;4992055;28;45178;-69
2022/01/03 02:42:25;;;;;;;;;3.33;1.33;;;;;13.12;64.26;101442.69;4994879;28;45103;-69
2022/01/03 02:45:06;;;;;;;;;4.33;1.67;;;;;12.76;64.36;101389.88;5005850;28;44972;-70
2022/01/03 02:47:31;;;;;;;;;2.67;1.33;;;;;13.12;64.83;101432.88;4996420;28;45584;-70
2022/01/03 02:49:57;;;;;;;;;2.67;1.67;;;;;13.15;64.57;101432.03;4989359;28;45727;-68
2022/01/03 02:52:23;;;;;;;;;1.00;1.00;;;;;13.16;64.46;101429.38;4990778;28;45409;-68
2022/01/03 02:54:49;;;;;;;;;5.00;2.00;;;;;13.17;64.91;101431.22;4989818;28;45385;-70
2022/01/03 02:57:15;;;;;;;;;2.00;1.67;;;;;13.17;65.14;101436.56;5004562;28;44998;-71
2022/01/03 02:59:40;;;;;;;;;1.00;1.00;;;;;13.08;64.92;101417.53;5001131;28;44942;-69
2022/01/03 03:02:06;;;;;;;;;7.33;2.00;;;;;13.17;65.21;101438.38;4992000;28;45048;-71
2022/01/03 03:04:32;;;;;;;;;2.33;2.33;;;;;12.74;64.97;101365.69;4992061;28;45180;-68
2022/01/03 03:06:57;;;;;;;;;4.00;2.00;;;;;13.16;65.47;101433.84;4992090;28;45042;-68
2022/01/03 03:09:23;;;;;;;;;5.67;2.33;;;;;13.14;65.47;101408.75;4991684;28;45502;-69
2022/01/03 03:11:48;;;;;;;;;3.33;2.00;;;;;13.18;65.27;101413.31;4994947;28;45192;-69
2022/01/03 03:14:13;;;;;;;;;7.33;4.00;;;;;13.10;64.41;101391.69;4994561;28;45166;-68
2022/01/03 03:16:40;;;;;;;;;3.00;2.00;;;;;13.20;64.87;101392.81;4992788;28;45257;-70
2022/01/03 03:19:06;;;;;;;;;4.67;2.00;;;;;13.04;65.06;101384.38;4999349;28;45319;-68
2022/01/03 03:21:31;;;;;;;;;2.33;2.00;;;;;13.08;65.50;101377.28;4997673;28;45440;-69
2022/01/03 03:23:58;;;;;;;;;3.67;1.00;;;;;13.12;64.74;101389.94;5005606;28;45132;-71
2022/01/03 03:26:23;;;;;;;;;6.00;2.67;;;;;13.01;64.68;101386.97;5001645;28;45297;-70
2022/01/03 03:28:49;;;;;;;;;3.67;2.33;;;;;13.15;64.89;101399.81;4992030;28;45177;-69
2022/01/03 03:31:14;;;;;;;;;8.00;2.00;;;;;13.12;65.06;101406.03;4991892;28;44995;-67
2022/01/03 03:33:40;;;;;;;;;4.67;2.00;;;;;13.13;64.58;101406.94;5017017;28;45283;-70
2022/01/03 03:36:06;;;;;;;;;3.67;2.33;;;;;13.12;65.02;101397.09;5004308;28;45345;-69
2022/01/03 03:38:31;;;;;;;;;3.00;3.00;;;;;13.13;64.56;101399.78;4992407;28;45136;-67
2022/01/03 03:40:59;;;;;;;;;1.00;1.00;;;;;13.15;64.95;101407.88;4992329;28;45125;-69
2022/01/03 03:43:25;;;;;;;;;10.33;4.00;;;;;13.18;64.59;101411.56;4992394;28;45371;-70
2022/01/03 03:45:51;;;;;;;;;4.00;2.67;;;;;13.13;64.84;101391.72;5006771;28;45491;-68
2022/01/03 03:48:17;;;;;;;;;6.67;2.33;;;;;13.08;64.13;101374.63;4995640;28;45206;-67
2022/01/03 03:50:43;;;;;;;;;4.67;1.67;;;;;13.21;64.43;101389.25;5010379;28;45119;-69
2022/01/03 03:53:08;;;;;;;;;5.33;2.00;;;;;13.30;64.13;101389.50;4992069;28;44936;-68
2022/01/03 03:55:34;;;;;;;;;2.00;2.00;;;;;13.24;63.99;101382.19;4992289;28;45100;-67
2022/01/03 03:58:00;;;;;;;;;5.00;2.67;;;;;13.31;64.49;101394.00;4983888;28;46502;-69
2022/01/03 04:00:27;;;;;;;;;7.67;3.67;;;;;13.31;63.92;101394.00;5008521;28;45258;-68
2022/01/03 04:02:52;;;;;;;;;4.67;1.67;;;;;13.33;64.06;101383.34;5010074;28;45082;-67
2022/01/03 04:05:18;;;;;;;;;6.00;1.00;;;;;13.34;63.68;101386.06;4995640;28;45193;-69
2022/01/03 04:07:44;;;;;;;;;4.67;1.00;;;;;13.32;64.30;101373.44;4977304;28;46285;-67
2022/01/03 04:10:11;;;;;;;;;4.00;1.33;;;;;13.39;64.39;101370.06;5006302;28;45028;-69
2022/01/03 04:12:37;;;;;;;;;4.00;1.00;;;;;13.41;63.68;101376.38;5010963;28;45059;-68
2022/01/03 04:15:03;;;;;;;;;4.33;1.33;;;;;13.41;63.96;101365.66;4996521;28;45191;-67
2022/01/03 04:17:29;;;;;;;;;4.00;0.33;;;;;13.32;63.93;101360.03;4995503;28;46167;-69
2022/01/03 04:19:54;;;;;;;;;4.33;1.00;;;;;13.38;63.86;101368.25;5003084;28;45161;-70
2022/01/03 04:22:20;;;;;;;;;5.00;3.00;;;;;13.35;63.57;101363.72;5000211;28;45292;-68
2022/01/03 04:24:45;;;;;;;;;4.33;1.33;;;;;13.35;64.50;101365.50;5009226;28;45220;-67
2022/01/03 04:27:10;;;;;;;;;3.00;3.00;;;;;13.35;64.65;101357.47;5008703;28;45474;-68
2022/01/03 04:29:36;;;;;;;;;2.33;1.33;;;;;13.36;64.51;101348.53;4997798;28;44923;-68
2022/01/03 04:32:02;;;;;;;;;3.00;3.00;;;;;13.28;64.29;101342.91;4994976;28;44974;-67
2022/01/03 04:34:27;;;;;;;;;3.00;2.00;;;;;13.18;64.00;101325.72;4994686;28;45027;-69
2022/01/03 04:36:53;;;;;;;;;3.33;2.00;;;;;13.32;64.33;101349.28;4994954;28;45153;-69
2022/01/03 04:39:18;;;;;;;;;2.33;1.00;;;;;13.23;64.90;101329.41;5008726;28;45099;-68
2022/01/03 04:41:43;;;;;;;;;6.67;3.00;;;;;13.28;64.39;101340.25;5011386;28;45085;-67
2022/01/03 04:44:09;;;;;;;;;9.33;2.00;;;;;13.27;64.56;101341.13;5006507;28;45063;-68
2022/01/03 04:46:35;;;;;;;;;5.00;3.33;;;;;13.28;64.98;101334.88;4994201;28;45163;-69
2022/01/03 04:49:02;;;;;;;;;9.33;1.00;;;;;13.28;64.74;101341.16;5006965;28;45117;-68
2022/01/03 04:51:27;;;;;;;;;3.67;1.00;;;;;13.26;64.63;101339.28;4994474;28;45059;-69
2022/01/03 04:53:53;;;;;;;;;2.00;2.00;;;;;13.22;65.32;101334.75;4994545;28;45014;-67
2022/01/03 04:56:18;;;;;;;;;4.67;3.00;;;;;13.27;64.56;101335.75;4993834;28;46240;-68
2022/01/03 04:58:43;;;;;;;;;5.00;2.00;;;;;13.12;65.06;101311.25;4997381;28;45034;-67
2022/01/03 05:01:10;;;;;;;;;5.00;2.00;;;;;13.25;64.24;101345.56;4997381;28;45153;-69
2022/01/03 05:03:35;;;;;;;;;5.00;3.00;;;;;13.20;64.97;101323.03;4994188;28;44977;-70
2022/01/03 05:06:01;;;;;;;;;3.67;2.67;;;;;13.14;64.17;101305.03;4994037;28;45468;-70
2022/01/03 05:08:29;;;;;;;;;7.67;3.00;;;;;13.13;64.96;101308.56;4994423;28;45125;-70
2022/01/03 05:10:55;;;;;;;;;8.33;3.00;;;;;13.21;65.00;101319.50;4995679;28;45560;-68
2022/01/03 05:13:20;;;;;;;;;6.00;2.00;;;;;13.21;65.16;101317.72;4995168;28;44947;-68
2022/01/03 05:15:45;;;;;;;;;5.00;4.67;;;;;13.25;64.18;101322.31;5001052;28;45454;-67
2022/01/03 05:18:11;;;;;;;;;5.67;2.00;;;;;13.20;64.49;101315.00;4994310;28;45014;-68
2022/01/03 05:20:36;;;;;;;;;4.67;3.00;;;;;13.28;65.08;101322.38;5001206;28;45006;-68
2022/01/03 05:23:01;;;;;;;;;8.67;4.00;;;;;13.31;64.33;101329.59;5004197;28;44967;-68
2022/01/03 05:25:27;;;;;;;;;6.00;1.67;;;;;13.36;64.30;101316.31;4995669;28;45142;-67
2022/01/03 05:27:53;;;;;;;;;1.00;1.00;;;;;13.32;64.94;101318.03;4993528;28;45010;-68
2022/01/03 05:30:19;;;;;;;;;3.00;3.00;;;;;13.32;64.76;101314.41;4994250;28;45073;-69
2022/01/03 05:32:44;;;;;;;;;2.00;2.00;;;;;13.33;64.45;101326.97;4994005;28;45197;-67
2022/01/03 05:35:10;;;;;;;;;6.67;2.67;;;;;13.31;65.22;101332.25;5007823;28;45877;-67
2022/01/03 05:37:35;;;;;;;;;6.67;2.00;;;;;13.30;64.67;101324.19;4995483;28;45086;-69
2022/01/03 05:40:01;;;;;;;;;5.67;2.33;;;;;13.27;64.99;101323.25;4994117;28;45280;-68
2022/01/03 05:42:26;;;;;;;;;3.33;2.00;;;;;13.27;65.69;101331.28;4988938;28;45075;-70
2022/01/03 05:44:51;;;;;;;;;4.67;3.00;;;;;13.25;64.79;101341.09;4994000;28;46195;-67
2022/01/03 05:47:17;;;;;;;;;6.33;2.67;;;;;13.31;64.81;101334.06;5008900;28;45232;-69
2022/01/03 05:49:42;;;;;;;;;2.00;2.00;;;;;13.29;65.46;101334.00;4993820;28;45380;-69
2022/01/03 05:52:07;;;;;;;;;12.33;2.67;;;;;13.28;65.60;101326.81;5008053;28;45161;-69
2022/01/03 05:54:33;;;;;;;;;4.00;4.00;;;;;13.30;65.65;101325.09;4999515;28;46230;-69
2022/01/03 05:56:58;;;;;;;;;3.00;1.00;;;;;13.30;64.65;101324.19;4996197;28;45509;-68
2022/01/03 05:59:23;;;;;;;;;6.33;2.67;;;;;13.18;64.64;101306.00;5002943;28;45017;-68
2022/01/03 06:01:50;;;;;;;;;3.67;2.00;;;;;13.32;64.63;101333.19;5003124;28;45276;-69
2022/01/03 06:04:22;;;;;;;;;4.00;3.00;;;;;13.30;65.79;101330.47;4991504;28;45137;-69
2022/01/03 06:06:59;;;;;;;;;5.33;3.33;;;;;13.32;65.22;101331.44;5004100;28;45203;-68
2022/01/03 06:09:25;;;;;;;;;8.00;4.00;;;;;13.32;65.62;101327.81;4992687;28;45048;-69
2022/01/03 06:11:52;;;;;;;;;9.00;3.33;;;;;13.28;65.77;101322.38;5004322;28;45292;-71
2022/01/03 06:14:22;;;;;;;;;5.00;3.00;;;;;13.33;65.82;101330.59;5004715;28;45119;-69
2022/01/03 06:16:48;;;;;;;;;4.33;2.00;;;;;13.33;64.91;101325.22;5004464;28;45164;-69
2022/01/03 06:19:15;;;;;;;;;8.67;6.33;;;;;13.27;65.11;101330.41;5008247;28;44941;-68
2022/01/03 06:21:41;;;;;;;;;5.00;5.00;;;;;13.27;65.21;101325.03;5013480;28;45247;-67
2022/01/03 06:24:08;;;;;;;;;4.00;2.67;;;;;13.32;65.00;101327.81;5010872;28;45479;-70
2022/01/03 06:26:33;;;;;;;;;5.67;3.00;;;;;13.31;65.06;101326.00;4992784;28;44951;-70
2022/01/03 06:28:59;;;;;;;;;10.33;2.33;;;;;13.27;65.31;101320.56;4985961;28;45164;-68
2022/01/03 06:31:24;;;;;;;;;3.67;2.67;;;;;13.28;64.75;101324.13;4997274;28;45130;-71
2022/01/03 06:33:49;;;;;;;;;9.00;4.00;;;;;13.22;65.67;101305.22;5005095;28;45530;-68
2022/01/03 06:36:15;;;;;;;;;4.00;3.00;;;;;13.25;65.22;101318.72;4992809;28;45244;-68
2022/01/03 06:38:40;;;;;;;;;7.67;4.33;;;;;13.13;65.62;101286.22;4997764;28;45178;-67
2022/01/03 06:41:06;;;;;;;;;6.00;3.00;;;;;13.27;65.26;101309.81;5002874;28;45376;-69
2022/01/03 06:43:31;;;;;;;;;4.00;2.00;;;;;13.25;65.50;101306.19;4989337;28;45510;-68
2022/01/03 06:45:56;;;;;;;;;8.00;1.67;;;;;13.22;65.03;101310.59;4991789;28;45269;-69
2022/01/03 06:48:22;;;;;;;;;5.67;3.00;;;;;13.15;65.96;101290.75;4989241;28;45234;-69
2022/01/03 06:50:47;;;;;;;;;5.33;2.00;;;;;13.22;65.07;101302.53;5008853;28;45164;-71
2022/01/03 06:53:12;;;;;;;;;4.00;4.00;;;;;12.81;65.01;101221.97;5000470;28;46114;-70
2022/01/03 06:55:38;;;;;;;;;3.00;2.67;;;;;13.22;66.19;101314.19;4995384;28;45017;-69
2022/01/03 06:58:03;;;;;;;;;3.67;2.00;;;;;13.23;65.35;101307.94;4990827;28;44908;-67
2022/01/03 07:00:28;;;;;;;;;4.33;3.33;;;;;13.24;65.87;101304.38;4991361;28;45099;-69
2022/01/03 07:02:53;;;;;;;;;5.00;3.00;;;;;13.16;65.24;101294.34;5007760;28;45792;-70
2022/01/03 07:05:19;;;;;;;;;5.33;2.00;;;;;13.15;65.65;101298.81;5008663;28;45028;-68
2022/01/03 07:07:44;;;;;;;;;5.00;2.00;;;;;13.19;65.75;101299.78;5008779;28;44937;-70
2022/01/03 07:10:10;;;;;;;;;5.67;3.33;;;;;13.01;65.93;101263.56;5013433;28;45173;-70
2022/01/03 07:12:36;;;;;;;;;0.00;0.00;;;;;13.20;66.09;101297.13;5006851;28;46129;-68
2022/01/03 07:20:29;;;;;;;;;9.33;4.00;;;;;13.21;65.78;101281.94;4974656;28;45616;-70
2022/01/03 07:22:54;;;;;;;;;4.00;4.00;;;;;12.93;65.81;101259.78;4974070;28;45436;-69
2022/01/03 07:25:20;;;;;;;;;19.75;7.75;;;;;13.21;65.55;101289.97;4978978;28;45371;-71
2022/01/03 07:27:45;;;;;;;;;7.33;4.00;;;;;13.20;65.70;101291.78;4974332;28;45429;-68
2022/01/03 07:30:11;;;;;;;;;6.00;3.33;;;;;13.21;65.68;101287.31;4974310;28;45492;-70
2022/01/03 07:32:36;;;;;;;;;5.33;3.67;;;;;13.22;65.11;101286.44;4973703;28;45596;-70
2022/01/03 07:35:02;;;;;;;;;5.00;4.00;;;;;13.12;66.43;101271.00;4974071;28;45465;-69
2022/01/03 07:37:27;;;;;;;;;6.33;2.00;;;;;13.16;66.42;101270.19;4977339;28;45597;-68
2022/01/03 07:39:52;;;;;;;;;3.00;2.33;;;;;13.12;66.07;101268.31;4977188;28;45635;-70
2022/01/03 07:42:18;;;;;;;;;4.00;2.67;;;;;13.15;66.20;101279.09;4977562;28;46147;-71
2022/01/03 07:44:43;;;;;;;;;9.00;6.00;;;;;13.15;65.90;101271.03;4977013;28;45432;-70
2022/01/03 07:47:09;;;;;;;;;7.00;3.00;;;;;13.12;65.92;101269.22;4977418;28;45698;-69
2022/01/03 07:49:34;;;;;;;;;3.00;3.00;;;;;13.17;66.24;101290.78;4977013;28;45428;-70
2022/01/03 07:51:59;;;;;;;;;6.67;4.00;;;;;13.18;66.61;101277.41;4959435;28;46297;-68
2022/01/03 07:54:25;;;;;;;;;6.67;3.33;;;;;13.15;66.10;101263.00;4976774;28;45464;-71
2022/01/03 07:56:50;;;;;;;;;8.67;7.00;;;;;13.19;65.27;101263.13;4980513;28;45352;-69
2022/01/03 07:59:16;;;;;;;;;3.33;3.33;;;;;13.19;65.36;101257.75;4977237;28;45587;-69
2022/01/03 08:01:41;;;;;;;;;3.00;3.00;;;;;13.21;65.75;101265.84;4976786;28;50319;-71
2022/01/03 08:04:07;;;;;;;;;5.00;3.33;;;;;13.22;65.55;101248.88;4976832;28;45365;-69
2022/01/03 08:06:33;;;;;;;;;6.00;3.00;;;;;13.22;65.92;101259.63;4976727;28;45404;-69
2022/01/03 08:08:58;;;;;;;;;8.00;3.00;;;;;13.22;66.34;101251.56;4969276;28;45326;-69
2022/01/03 08:11:24;;;;;;;;;5.33;3.00;;;;;13.09;66.22;101232.47;4976645;28;45380;-70
2022/01/03 08:13:49;;;;;;;;;9.67;2.00;;;;;13.12;66.24;101233.44;4989383;28;45314;-70
2022/01/03 08:16:14;;;;;;;;;5.00;2.00;;;;;13.04;66.57;101226.09;4995330;28;45496;-70
2022/01/03 08:18:40;;;;;;;;;8.00;3.33;;;;;13.18;66.25;101250.59;4995564;28;45607;-71
2022/01/03 08:21:05;;;;;;;;;6.67;4.00;;;;;13.21;66.51;101247.94;4995451;28;46204;-70
2022/01/03 08:23:32;;;;;;;;;4.33;2.67;;;;;13.21;65.70;101244.38;4995570;28;45477;-69
2022/01/03 08:25:58;;;;;;;;;5.67;4.33;;;;;13.24;65.79;101249.81;4995645;28;45444;-70
2022/01/03 08:28:23;;;;;;;;;6.67;5.67;;;;;13.23;66.24;101235.50;4995682;28;45444;-68
2022/01/03 08:30:48;;;;;;;;;10.00;3.00;;;;;13.23;66.10;101218.47;4995569;28;45625;-68
2022/01/03 08:33:14;;;;;;;;;4.33;1.00;;;;;13.30;66.31;101225.81;4995319;28;45463;-69
2022/01/03 08:35:39;;;;;;;;;7.33;5.67;;;;;13.20;66.27;101223.75;4995250;28;45337;-68
2022/01/03 08:38:04;;;;;;;;;8.67;5.33;;;;;12.78;66.54;101145.03;4995455;28;45424;-69
2022/01/03 08:40:31;;;;;;;;;8.67;4.33;;;;;13.30;66.17;101233.88;4995014;28;46828;-70
2022/01/03 08:42:57;;;;;;;;;12.00;6.00;;;;;13.21;66.38;101201.44;4995396;28;45509;-70
2022/01/03 08:45:22;;;;;;;;;3.33;2.00;;;;;13.31;66.43;101219.56;4995152;28;45381;-70
2022/01/03 08:47:48;;;;;;;;;4.67;2.00;;;;;13.27;65.78;101213.22;4995260;28;45523;-72
2022/01/03 08:50:15;;;;;;;;;5.67;4.33;;;;;13.26;66.02;101218.53;4994941;28;45277;-70
2022/01/03 08:52:41;;;;;;;;;2.67;2.67;;;;;13.19;66.97;101195.16;4995196;28;45401;-71
2022/01/03 08:55:07;;;;;;;;;6.00;5.00;;;;;13.34;66.08;101227.72;4995022;28;45338;-69
2022/01/03 08:57:32;;;;;;;;;5.67;2.33;;;;;13.37;66.45;101210.78;4995215;28;45428;-72
2022/01/03 08:59:57;;;;;;;;;8.33;6.00;;;;;13.36;66.25;101209.84;4994615;28;45903;-70
2022/01/03 09:02:23;;;;;;;;;10.33;4.00;;;;;13.22;66.71;101184.47;4994913;28;45466;-69
2022/01/03 09:04:48;;;;;;;;;5.00;3.00;;;;;12.72;66.00;101110.94;4995447;28;45669;-68
2022/01/03 09:07:14;;;;;;;;;8.67;4.00;;;;;13.38;66.62;101229.63;4995654;28;45550;-69
2022/01/03 09:09:40;;;;;;;;;6.67;5.00;;;;;13.35;66.39;101220.59;4994675;28;46948;-69
2022/01/03 09:12:07;;;;;;;;;7.67;6.00;;;;;13.43;65.98;101217.19;4995270;28;45659;-68
2022/01/03 09:14:36;;;;;;;;;8.33;4.00;;;;;13.21;66.37;101191.59;4995022;28;45310;-68
2022/01/03 09:17:02;;;;;;;;;10.00;4.67;;;;;13.41;66.07;101227.00;4994746;28;45495;-69
2022/01/03 09:19:28;;;;;;;;;5.67;4.00;;;;;13.41;66.66;101213.59;4994595;28;47187;-71
2022/01/03 09:22:05;;;;;;;;;10.67;5.00;;;;;13.25;66.01;101177.41;4994993;28;45531;-71
2022/01/03 09:24:43;;;;;;;;;6.33;4.33;;;;;13.23;66.55;101178.22;4989738;28;45465;-69
2022/01/03 09:29:56;;;;;;;;;7.33;4.67;;;;;13.45;66.51;101226.19;4994199;28;45770;-69
2022/01/03 09:32:22;;;;;;;;;7.33;3.00;;;;;13.45;66.29;101217.25;4994164;28;45543;-70
2022/01/03 09:34:47;;;;;;;;;8.67;3.67;;;;;13.42;66.69;101218.06;4994637;28;45563;-70
2022/01/03 09:37:13;;;;;;;;;9.00;5.67;;;;;13.41;66.71;101207.28;4994768;28;45362;-69
2022/01/03 09:39:39;;;;;;;;;6.67;3.67;;;;;13.40;66.39;101213.53;4994500;28;45424;-70
2022/01/03 09:42:07;;;;;;;;;5.67;2.67;;;;;13.40;67.04;101195.66;4994434;28;45961;-69
2022/01/03 09:44:35;;;;;;;;;7.00;3.67;;;;;13.34;67.20;101184.78;4994091;28;45433;-68
2022/01/03 09:47:05;;;;;;;;;8.33;4.33;;;;;13.45;66.72;101202.03;4994401;28;45867;-70
2022/01/03 09:49:35;;;;;;;;;5.67;3.67;;;;;13.44;66.35;101216.31;4993963;28;45439;-68
2022/01/03 09:52:04;;;;;;;;;3.67;2.00;;;;;13.46;66.17;101210.97;4976365;28;46123;-70
2022/01/03 09:54:30;;;;;;;;;2.33;2.33;;;;;13.43;65.97;101211.84;4993920;28;45459;-70
2022/01/03 09:56:59;;;;;;;;;6.00;5.00;;;;;13.40;66.49;101230.53;4994043;28;45381;-69
2022/01/03 09:59:26;;;;;;;;;6.33;3.67;;;;;13.48;66.46;101222.69;4992841;28;45464;-72
2022/01/03 10:01:53;;;;;;;;;4.33;4.33;;;;;13.51;65.95;101219.13;4975933;28;45570;-72
2022/01/03 10:04:18;;;;;;;;;4.00;3.67;;;;;13.51;66.61;101211.97;4993735;28;45289;-70
2022/01/03 10:06:44;;;;;;;;;5.00;3.00;;;;;13.54;66.66;101211.16;4994047;28;45519;-71
2022/01/03 10:09:10;;;;;;;;;7.67;2.67;;;;;13.47;66.32;101196.69;4993892;28;46162;-72
2022/01/03 10:11:35;;;;;;;;;5.67;3.33;;;;;13.40;65.97;101189.38;4973185;28;45508;-69
2022/01/03 10:14:01;;;;;;;;;6.33;4.00;;;;;13.50;66.08;101217.34;4973423;28;45439;-70
2022/01/03 10:16:28;;;;;;;;;4.67;2.67;;;;;13.39;66.21;101196.50;4994476;28;45397;-70
2022/01/03 10:18:53;;;;;;;;;4.00;3.00;;;;;13.28;66.27;101184.59;4993446;28;45917;-72
2022/01/03 10:21:45;;;;;;;;;7.00;2.67;;;;;13.45;65.90;101203.81;4993429;28;45434;-71
2022/01/03 10:24:13;;;;;;;;;12.33;6.00;;;;;13.44;66.47;101205.56;4993437;28;44888;-69
2022/01/03 10:26:42;;;;;;;;;7.00;2.00;;;;;13.37;66.66;101181.25;4973223;28;45572;-70
2022/01/03 10:29:15;;;;;;;;;29.00;25.75;;;;;13.45;66.35;101195.75;4974756;28;45574;-69
2022/01/03 10:31:42;;;;;;;;;9.67;8.00;;;;;13.31;66.65;101162.31;4988313;28;45534;-73
2022/01/03 10:34:11;;;;;;;;;5.00;5.00;;;;;13.47;65.96;101183.28;4993795;28;45594;-70
2022/01/03 10:36:37;;;;;;;;;7.33;4.00;;;;;13.17;66.56;101124.47;4993814;28;45593;-71
2022/01/03 10:39:15;;;;;;;;;7.33;4.33;;;;;13.43;66.24;101179.63;4992950;28;46077;-70
2022/01/03 10:41:41;;;;;;;;;5.00;2.33;;;;;13.44;65.88;101168.00;4993123;28;45455;-68
2022/01/03 10:44:07;;;;;;;;;4.00;4.00;;;;;13.51;65.73;101170.81;4992749;28;46045;-69
2022/01/03 10:46:35;;;;;;;;;10.67;3.67;;;;;13.51;66.15;101173.50;4978006;28;45570;-70
2022/01/03 10:49:21;;;;;;;;;7.33;4.00;;;;;13.44;65.58;101154.56;4973872;28;46906;-70
2022/01/03 10:51:47;;;;;;;;;7.33;4.00;;;;;13.54;65.77;101170.88;4974044;28;45408;-69
2022/01/03 10:54:17;;;;;;;;;6.00;2.00;;;;;13.55;65.38;101161.97;4974216;28;45534;-68
2022/01/03 10:56:50;;;;;;;;;7.50;2.00;;;;;13.49;65.54;101141.25;4974345;28;45383;-70
2022/01/03 10:59:18;;;;;;;;;7.33;3.00;;;;;13.59;65.76;101151.28;4974269;28;45306;-69
2022/01/03 11:01:46;;;;;;;;;5.33;2.33;;;;;13.61;65.97;101157.63;4974039;28;45384;-71
2022/01/03 11:04:29;;;;;;;;;10.67;4.00;;;;;13.63;66.00;101144.25;4973696;28;45400;-69
2022/01/03 11:12:46;;;;;;;;;7.67;3.00;;;;;13.67;65.97;101124.63;4991324;28;45922;-70
2022/01/03 11:15:21;;;;;;;;;7.33;7.00;;;;;13.62;65.76;101108.41;4996116;28;45471;-70
2022/01/03 11:17:47;;;;;;;;;4.33;4.00;;;;;13.61;65.10;101112.00;4978716;28;45462;-69
2022/01/03 11:20:21;;;;;;;;;9.00;2.00;;;;;13.66;65.57;101113.84;4995900;28;47143;-71
2022/01/03 11:22:49;;;;;;;;;8.33;7.00;;;;;13.74;64.91;101122.94;4995551;28;45508;-69
2022/01/03 11:25:14;;;;;;;;;6.00;4.00;;;;;13.25;65.43;101021.78;4995727;28;45490;-71
2022/01/03 11:27:40;;;;;;;;;6.33;3.33;;;;;13.81;65.58;101109.69;4996563;28;46140;-70
2022/01/03 11:30:08;;;;;;;;;4.33;4.33;;;;;13.81;64.68;101104.31;4995542;28;45397;-70
2022/01/03 11:32:36;;;;;;;;;3.00;3.00;;;;;13.75;65.01;101082.69;4995857;28;45435;-70
2022/01/03 11:35:02;;;;;;;;;4.67;4.67;;;;;13.79;64.97;101072.91;4996042;28;45321;-70
2022/01/03 11:37:32;;;;;;;;;6.00;4.33;;;;;13.85;64.93;101074.84;4996138;28;45242;-72
2022/01/03 11:39:59;;;;;;;;;13.50;5.25;;;;;13.87;65.03;101070.38;4996100;28;46404;-70
2022/01/03 11:42:25;;;;;;;;;6.00;3.67;;;;;13.86;64.64;101071.25;4995667;28;45460;-69